createdAt,value
2018-03-07T00:03:55.017Z,1.70
2018-03-07T00:08:57.660Z,1.60
2018-03-07T00:14:00.303Z,1.60
2018-03-07T00:19:03.012Z,1.60
2018-03-07T00:24:05.917Z,1.60
2018-03-07T00:29:09.296Z,1.50
2018-03-07T00:34:12.024Z,1.50
2018-03-07T00:39:15.493Z,1.50
2018-03-07T00:44:18.320Z,1.50
2018-03-07T00:49:21.216Z,1.50
2018-03-07T00:54:23.955Z,1.40
2018-03-07T00:59:26.649Z,1.40
2018-03-07T01:04:29.384Z,1.40
2018-03-07T01:09:32.022Z,1.40
2018-03-07T01:14:35.056Z,1.40
2018-03-07T01:19:37.938Z,1.40
2018-03-07T01:24:40.848Z,1.40
2018-03-07T01:29:43.701Z,1.40
2018-03-07T01:34:46.309Z,1.40
2018-03-07T01:39:48.981Z,1.40
2018-03-07T01:44:52.375Z,1.40
2018-03-07T01:49:55.042Z,1.40
2018-03-07T01:54:57.740Z,1.40
2018-03-07T02:00:01.879Z,1.40
2018-03-07T02:05:04.619Z,1.40
2018-03-07T02:10:07.271Z,1.40
2018-03-07T02:15:10.009Z,1.40
2018-03-07T02:20:12.632Z,1.40
2018-03-07T02:25:16.856Z,1.40
2018-03-07T02:30:19.693Z,1.40
2018-03-07T02:35:22.373Z,1.40
2018-03-07T02:40:25.273Z,1.40
2018-03-07T02:45:27.993Z,1.30
2018-03-07T02:50:30.730Z,1.30
2018-03-07T02:55:34.013Z,1.30
2018-03-07T03:00:36.622Z,1.40
2018-03-07T03:05:39.282Z,1.30
2018-03-07T03:10:42.838Z,1.30
2018-03-07T03:15:45.475Z,1.30
2018-03-07T03:20:49.091Z,1.30
2018-03-07T03:25:52.920Z,1.30
2018-03-07T03:30:55.610Z,1.30
2018-03-07T03:35:58.315Z,1.30
2018-03-07T03:41:03.349Z,1.30
2018-03-07T03:46:06.627Z,1.30
2018-03-07T03:51:10.083Z,1.30
2018-03-07T03:56:13.488Z,1.30
2018-03-07T04:01:17.771Z,1.30
2018-03-07T04:06:21.174Z,1.30
2018-03-07T04:11:23.831Z,1.30
2018-03-07T04:16:27.320Z,1.30
2018-03-07T04:21:29.931Z,1.30
2018-03-07T04:26:32.837Z,1.30
2018-03-07T04:31:35.523Z,1.30
2018-03-07T04:36:38.224Z,1.30
2018-03-07T04:41:40.875Z,1.30
2018-03-07T04:46:44.242Z,1.40
2018-03-07T04:51:47.369Z,1.30
2018-03-07T04:56:50.043Z,1.40
2018-03-07T05:01:52.702Z,1.40
2018-03-07T05:06:56.063Z,1.40
2018-03-07T05:11:59.490Z,1.40
2018-03-07T05:17:02.395Z,1.40
2018-03-07T05:22:05.176Z,1.40
2018-03-07T05:27:08.007Z,1.50
2018-03-07T05:32:10.856Z,1.50
2018-03-07T05:37:14.438Z,1.50
2018-03-07T05:42:17.855Z,1.50
2018-03-07T05:47:20.522Z,1.50
2018-03-07T05:52:23.208Z,1.50
2018-03-07T05:57:26.025Z,1.50
2018-03-07T06:02:28.769Z,1.50
2018-03-07T06:07:31.500Z,1.50
2018-03-07T06:12:34.149Z,1.50
2018-03-07T06:17:37.390Z,1.60
2018-03-07T06:22:39.984Z,1.60
2018-03-07T06:27:42.841Z,1.70
2018-03-07T06:32:46.093Z,1.70
2018-03-07T06:37:48.759Z,1.70
2018-03-07T06:42:52.910Z,1.80
2018-03-07T06:47:56.175Z,1.80
2018-03-07T06:52:58.770Z,1.80
2018-03-07T06:58:02.381Z,1.90
2018-03-07T07:03:05.735Z,2.00
2018-03-07T07:08:08.337Z,1.90
2018-03-07T07:13:11.622Z,2.00
2018-03-07T07:18:14.383Z,2.10
2018-03-07T07:23:18.550Z,2.20
2018-03-07T07:28:21.177Z,2.20
2018-03-07T07:33:24.674Z,2.30
2018-03-07T07:38:27.959Z,2.40
2018-03-07T07:43:31.373Z,2.60
2018-03-07T07:48:34.858Z,2.80
2018-03-07T07:53:37.772Z,2.80
2018-03-07T07:58:40.356Z,2.90
2018-03-07T08:03:43.246Z,3.00
2018-03-07T08:08:46.104Z,3.20
2018-03-07T08:13:48.928Z,3.40
2018-03-07T08:18:52.507Z,3.90
2018-03-07T08:23:55.759Z,3.90
2018-03-07T08:28:59.838Z,4.40
2018-03-07T08:34:02.605Z,4.40
2018-03-07T08:39:05.233Z,4.70
2018-03-07T08:44:07.879Z,4.80
2018-03-07T08:49:13.830Z,5.00
2018-03-07T08:54:16.804Z,5.00
2018-03-07T08:59:19.452Z,5.10
2018-03-07T09:04:22.428Z,5.20
2018-03-07T09:09:25.073Z,5.20
2018-03-07T09:14:27.746Z,5.40
2018-03-07T09:19:30.641Z,5.50
2018-03-07T09:24:34.816Z,5.80
2018-03-07T09:29:38.149Z,6.00
2018-03-07T09:34:40.920Z,6.20
2018-03-07T09:39:43.817Z,6.50
2018-03-07T09:44:46.403Z,6.70
2018-03-07T09:49:49.043Z,7.00
2018-03-07T09:54:52.485Z,7.20
2018-03-07T09:59:55.078Z,7.40
2018-03-07T10:04:57.694Z,7.70
2018-03-07T10:10:02.619Z,8.30
2018-03-07T10:15:05.884Z,8.30
2018-03-07T10:20:09.241Z,8.90
2018-03-07T10:25:11.900Z,8.80
2018-03-07T10:30:15.207Z,9.20
2018-03-07T10:35:17.806Z,9.40
2018-03-07T10:40:21.094Z,9.70
2018-03-07T10:45:24.078Z,10.00
2018-03-07T10:50:27.400Z,10.30
2018-03-07T10:55:33.375Z,10.50
2018-03-07T11:00:37.159Z,10.80
2018-03-07T11:05:40.554Z,11.20
2018-03-07T11:10:43.357Z,11.20
2018-03-07T11:15:46.229Z,11.30
2018-03-07T11:20:49.054Z,11.30
2018-03-07T11:25:52.378Z,11.30
2018-03-07T11:30:55.197Z,11.30
2018-03-07T11:35:58.823Z,11.20
2018-03-07T11:41:02.934Z,11.20
2018-03-07T11:46:05.511Z,11.10
2018-03-07T11:51:08.754Z,11.00
2018-03-07T11:56:11.422Z,10.90
2018-03-07T12:01:14.609Z,10.70
2018-03-07T12:06:18.571Z,10.40
2018-03-07T12:11:21.804Z,10.40
2018-03-07T12:16:25.035Z,10.30
2018-03-07T12:21:27.831Z,10.20
2018-03-07T12:26:30.808Z,10.10
2018-03-07T12:31:33.655Z,10.00
2018-03-07T12:36:36.500Z,9.90
2018-03-07T12:41:39.173Z,9.80
2018-03-07T12:46:42.443Z,9.70
2018-03-07T12:51:45.660Z,9.60
2018-03-07T12:56:48.460Z,9.50
2018-03-07T13:01:51.711Z,9.50
2018-03-07T13:06:54.313Z,9.40
2018-03-07T13:11:57.626Z,9.40
2018-03-07T13:17:01.220Z,9.30
2018-03-07T13:22:03.827Z,9.30
2018-03-07T13:27:06.376Z,9.30
2018-03-07T13:32:08.916Z,9.30
2018-03-07T13:37:11.683Z,9.30
2018-03-07T13:42:14.877Z,9.40
2018-03-07T13:47:17.692Z,9.40
2018-03-07T13:52:20.966Z,9.50
2018-03-07T13:57:24.274Z,9.70
2018-03-07T14:02:28.425Z,9.80
2018-03-07T14:07:32.556Z,9.90
2018-03-07T14:12:35.798Z,10.00
2018-03-07T14:17:38.349Z,10.00
2018-03-07T14:22:42.709Z,10.00
2018-03-07T14:27:45.302Z,10.00
2018-03-07T14:32:49.366Z,10.00
2018-03-07T14:37:52.537Z,10.00
2018-03-07T14:42:55.883Z,10.00
2018-03-07T14:47:58.437Z,10.00
2018-03-07T14:53:01.008Z,10.00
2018-03-07T14:58:03.613Z,10.00
2018-03-07T15:03:06.170Z,10.00
2018-03-07T15:08:08.744Z,9.90
2018-03-07T15:13:12.020Z,9.90
2018-03-07T15:18:14.570Z,9.90
2018-03-07T15:23:17.909Z,9.80
2018-03-07T15:28:20.808Z,9.80
2018-03-07T15:33:23.407Z,9.80
2018-03-07T15:38:26.246Z,9.80
2018-03-07T15:43:29.809Z,9.60
2018-03-07T15:48:33.032Z,9.60
2018-03-07T15:53:35.613Z,9.50
2018-03-07T15:58:38.195Z,9.50
2018-03-07T16:03:40.761Z,9.40
2018-03-07T16:08:43.696Z,9.30
2018-03-07T16:13:46.572Z,9.30
2018-03-07T16:18:49.152Z,9.20
2018-03-07T16:23:51.726Z,9.10
2018-03-07T16:28:55.036Z,9.00
2018-03-07T16:34:00.923Z,9.00
2018-03-07T16:39:04.179Z,8.90
2018-03-07T16:44:06.760Z,8.90
2018-03-07T16:49:10.743Z,8.70
2018-03-07T16:54:13.564Z,8.70
2018-03-07T16:59:17.699Z,8.60
2018-03-07T17:04:20.308Z,8.50
2018-03-07T17:09:22.886Z,8.40
2018-03-07T17:14:25.480Z,8.30
2018-03-07T17:19:28.093Z,8.20
2018-03-07T17:24:31.395Z,8.10
2018-03-07T17:29:35.144Z,8.10
2018-03-07T17:34:37.729Z,8.00
2018-03-07T17:39:40.316Z,7.80
2018-03-07T17:44:42.923Z,7.70
2018-03-07T17:49:45.553Z,7.60
2018-03-07T17:54:48.640Z,7.50
2018-03-07T17:59:51.468Z,7.40
2018-03-07T18:04:54.188Z,7.30
2018-03-07T18:09:57.108Z,7.20
2018-03-07T18:15:02.005Z,7.10
2018-03-07T18:20:06.090Z,7.00
2018-03-07T18:25:09.446Z,6.90
2018-03-07T18:30:12.134Z,6.90
2018-03-07T18:35:15.091Z,6.90
2018-03-07T18:40:18.320Z,6.80
2018-03-07T18:45:21.319Z,6.70
2018-03-07T18:50:25.170Z,6.70
2018-03-07T18:55:28.567Z,6.50
2018-03-07T19:00:34.728Z,6.50
2018-03-07T19:05:37.447Z,6.50
2018-03-07T19:10:40.829Z,6.40
2018-03-07T19:15:43.453Z,6.30
2018-03-07T19:20:47.219Z,6.20
2018-03-07T19:25:49.842Z,6.20
2018-03-07T19:30:53.238Z,6.20
2018-03-07T19:35:55.836Z,6.10
2018-03-07T19:40:59.108Z,6.00
2018-03-07T19:46:01.803Z,5.90
2018-03-07T19:51:04.393Z,5.80
2018-03-07T19:56:07.679Z,5.70
2018-03-07T20:01:10.475Z,5.70
2018-03-07T20:06:13.115Z,5.60
2018-03-07T20:11:17.751Z,5.50
2018-03-07T20:16:23.644Z,5.40
2018-03-07T20:21:26.895Z,5.40
2018-03-07T20:26:30.238Z,5.30
2018-03-07T20:31:33.125Z,5.20
2018-03-07T20:36:36.129Z,5.20
2018-03-07T20:41:39.230Z,5.10
2018-03-07T20:46:43.697Z,5.00
2018-03-07T20:51:47.268Z,4.90
2018-03-07T20:56:49.954Z,4.90
2018-03-07T21:01:52.616Z,4.80
2018-03-07T21:06:55.893Z,4.70
2018-03-07T21:11:59.209Z,4.70
2018-03-07T21:17:01.867Z,4.60
2018-03-07T21:22:04.748Z,4.60
2018-03-07T21:27:08.179Z,4.50
2018-03-07T21:32:12.415Z,4.40
2018-03-07T21:37:15.086Z,4.40
2018-03-07T21:42:18.004Z,4.40
2018-03-07T21:47:24.256Z,4.30
2018-03-07T21:52:27.121Z,4.30
2018-03-07T21:57:30.810Z,4.20
2018-03-07T22:02:33.521Z,4.20
2018-03-07T22:07:36.209Z,4.20
2018-03-07T22:12:38.884Z,4.20
2018-03-07T22:17:42.284Z,4.20
2018-03-07T22:22:45.087Z,4.10
2018-03-07T22:27:48.626Z,4.20
2018-03-07T22:32:51.372Z,4.20
2018-03-07T22:37:54.365Z,4.20
2018-03-07T22:42:57.031Z,4.20
2018-03-07T22:48:00.646Z,4.20
2018-03-07T22:53:03.405Z,4.20
2018-03-07T22:58:06.728Z,4.20
2018-03-07T23:03:09.552Z,4.20
2018-03-07T23:08:12.206Z,4.20
2018-03-07T23:13:15.555Z,4.20
2018-03-07T23:18:18.419Z,4.20
2018-03-07T23:23:21.368Z,4.10
2018-03-07T23:28:24.187Z,4.10
2018-03-07T23:33:27.023Z,4.10
2018-03-07T23:38:29.679Z,4.00
2018-03-07T23:43:33.859Z,4.00
2018-03-07T23:48:37.336Z,3.90
2018-03-07T23:53:40.617Z,3.90
2018-03-07T23:58:45.632Z,3.80
